createdAt,value
2023-04-01T00:02:44.908Z,98751.94
2023-04-01T00:05:33.658Z,98756.28
2023-04-01T00:08:22.713Z,98751.53
2023-04-01T00:11:12.632Z,98765.59
2023-04-01T00:14:01.410Z,98750.47
2023-04-01T00:16:49.966Z,98770.50
2023-04-01T00:19:38.528Z,98765.75
2023-04-01T00:22:27.893Z,98754.88
2023-04-01T00:25:16.704Z,98758.63
2023-04-01T00:28:06.606Z,98759.34
2023-04-01T00:30:55.201Z,98754.22
2023-04-01T00:33:43.657Z,98732.91
2023-04-01T00:36:32.141Z,98747.22
2023-04-01T00:39:20.808Z,98752.19
2023-04-01T00:42:11.748Z,98758.25
2023-04-01T00:45:29.187Z,98752.88
2023-04-01T00:48:21.471Z,98749.63
2023-04-01T00:51:11.811Z,98744.00
2023-04-01T00:54:04.659Z,98744.59
2023-04-01T00:56:57.124Z,98755.09
2023-04-01T00:59:48.391Z,98743.66
2023-04-01T01:02:38.379Z,98743.25
2023-04-01T01:05:34.668Z,98733.81
2023-04-01T01:08:38.592Z,98735.19
2023-04-01T01:11:36.999Z,98736.09
2023-04-01T01:14:40.662Z,98727.97
2023-04-01T01:17:36.645Z,98718.63
2023-04-01T01:21:12.746Z,98740.66
2023-04-01T01:24:19.589Z,98734.81
2023-04-01T01:27:10.087Z,98719.34
2023-04-01T01:30:31.918Z,98744.06
2023-04-01T01:33:32.063Z,98739.19
2023-04-01T01:36:23.236Z,98738.63
2023-04-01T01:39:12.088Z,98737.00
2023-04-01T01:42:04.232Z,98700.03
2023-04-01T01:44:53.731Z,98738.75
2023-04-01T01:47:42.857Z,98726.66
2023-04-01T01:50:31.447Z,98732.59
2023-04-01T01:53:21.429Z,98727.59
2023-04-01T01:56:11.639Z,98724.06
2023-04-01T01:59:03.479Z,98618.09
2023-04-01T02:01:54.508Z,98720.84
2023-04-01T02:04:45.541Z,98665.22
2023-04-01T02:07:35.448Z,98723.97
2023-04-01T02:10:27.409Z,98718.28
2023-04-01T02:13:19.820Z,98722.47
2023-04-01T02:16:16.042Z,98707.78
2023-04-01T02:19:08.216Z,98709.88
2023-04-01T02:21:59.581Z,98722.22
2023-04-01T02:24:48.159Z,98704.06
2023-04-01T02:27:38.209Z,98711.03
2023-04-01T02:30:28.538Z,98716.97
2023-04-01T02:33:17.497Z,98700.91
2023-04-01T02:36:06.353Z,98728.06
2023-04-01T02:38:56.347Z,98713.47
2023-04-01T02:41:46.278Z,98719.97
2023-04-01T02:44:36.185Z,98713.84
2023-04-01T02:47:24.636Z,98720.44
2023-04-01T02:50:13.266Z,98721.00
2023-04-01T02:53:01.822Z,98700.97
2023-04-01T02:55:51.373Z,98722.31
2023-04-01T02:58:39.848Z,98717.66
2023-04-01T03:01:29.740Z,98706.09
2023-04-01T03:04:18.221Z,98723.03
2023-04-01T03:07:06.944Z,98714.97
2023-04-01T03:09:55.430Z,98717.66
2023-04-01T03:12:43.917Z,98717.31
2023-04-01T03:15:32.608Z,98717.88
2023-04-01T03:18:22.620Z,98714.06
2023-04-01T03:21:16.278Z,98710.94
2023-04-01T03:24:04.857Z,98730.38
2023-04-01T03:26:53.322Z,98717.81
2023-04-01T03:29:41.793Z,98716.97
2023-04-01T03:32:30.566Z,98720.50
2023-04-01T03:35:20.767Z,98719.19
2023-04-01T03:38:09.259Z,98718.28
2023-04-01T03:40:57.716Z,98729.91
2023-04-01T03:43:46.684Z,98735.47
2023-04-01T03:46:35.222Z,98724.88
2023-04-01T03:49:23.786Z,98719.50
2023-04-01T03:52:14.033Z,98695.78
2023-04-01T03:55:02.869Z,98680.75
2023-04-01T03:57:51.276Z,98718.56
2023-04-01T04:00:39.754Z,98717.78
2023-04-01T04:03:29.108Z,98707.59
2023-04-01T04:06:19.175Z,98719.97
2023-04-01T04:09:09.054Z,98711.81
2023-04-01T04:11:57.483Z,98708.66
2023-04-01T04:14:46.280Z,98701.56
2023-04-01T04:17:34.843Z,98706.81
2023-04-01T04:20:23.332Z,98718.09
2023-04-01T04:23:11.754Z,98717.97
2023-04-01T04:26:02.573Z,98714.81
2023-04-01T04:28:51.009Z,98699.25
2023-04-01T04:31:39.536Z,98704.56
2023-04-01T04:34:27.984Z,98702.78
2023-04-01T04:37:16.540Z,98696.81
2023-04-01T04:40:05.513Z,98706.53
2023-04-01T04:42:55.320Z,98710.00
2023-04-01T04:45:43.829Z,98687.16
2023-04-01T04:48:32.292Z,98700.31
2023-04-01T04:51:21.991Z,98687.06
2023-04-01T04:54:10.698Z,98704.16
2023-04-01T04:56:59.231Z,98695.56
2023-04-01T04:59:49.100Z,98693.41
2023-04-01T05:02:37.853Z,98694.25
2023-04-01T05:05:26.566Z,98670.44
2023-04-01T05:08:15.085Z,98682.69
2023-04-01T05:11:03.923Z,98688.22
2023-04-01T05:13:52.440Z,98688.66
2023-04-01T05:16:42.306Z,98681.06
2023-04-01T05:19:30.802Z,98678.09
2023-04-01T05:22:19.343Z,98675.81
2023-04-01T05:25:08.525Z,98673.63
2023-04-01T05:27:57.078Z,98679.06
2023-04-01T05:30:45.939Z,98662.19
2023-04-01T05:33:36.088Z,98674.16
2023-04-01T05:36:24.606Z,98653.91
2023-04-01T05:39:13.232Z,98670.25
2023-04-01T05:42:01.741Z,98682.19
2023-04-01T05:44:50.211Z,98680.41
2023-04-01T05:47:38.726Z,98685.13
2023-04-01T05:50:28.609Z,98684.19
2023-04-01T05:53:17.109Z,98673.47
2023-04-01T05:56:06.142Z,98687.25
2023-04-01T05:58:56.369Z,98683.56
2023-04-01T06:01:44.977Z,98679.63
2023-04-01T06:04:39.249Z,98678.47
2023-04-01T06:07:29.802Z,98692.00
2023-04-01T06:10:20.132Z,98674.25
2023-04-01T06:13:13.866Z,98671.41
2023-04-01T06:16:07.159Z,98692.69
2023-04-01T06:19:06.349Z,98694.69
2023-04-01T06:22:24.370Z,98688.78
2023-04-01T06:25:43.570Z,98678.06
2023-04-01T06:28:49.636Z,98689.13
2023-04-01T06:31:47.865Z,98688.19
2023-04-01T06:34:57.597Z,98690.50
2023-04-01T06:38:04.179Z,98688.88
2023-04-01T06:41:11.568Z,98684.13
2023-04-01T06:44:10.378Z,98703.56
2023-04-01T06:47:01.045Z,98702.16
2023-04-01T06:49:54.693Z,98692.94
2023-04-01T06:52:49.400Z,98689.56
2023-04-01T06:55:41.495Z,98698.19
2023-04-01T06:58:33.702Z,98695.28
2023-04-01T07:01:25.073Z,98692.00
2023-04-01T07:04:16.610Z,98700.66
2023-04-01T07:07:08.176Z,98697.34
2023-04-01T07:10:00.135Z,98701.75
2023-04-01T07:12:50.591Z,98686.53
2023-04-01T07:15:43.133Z,98579.84
2023-04-01T07:18:38.072Z,98701.06
2023-04-01T07:21:30.524Z,98693.41
2023-04-01T07:24:24.247Z,98696.34
2023-04-01T07:27:14.350Z,98707.53
2023-04-01T07:30:03.599Z,98716.38
2023-04-01T07:32:56.440Z,98711.94
2023-04-01T07:35:48.829Z,98720.22
2023-04-01T07:38:47.186Z,98717.44
2023-04-01T07:41:44.408Z,98723.72
2023-04-01T07:44:38.048Z,98728.94
2023-04-01T07:47:37.171Z,98729.06
2023-04-01T07:50:29.813Z,98701.47
2023-04-01T07:53:23.708Z,98721.81
2023-04-01T07:56:14.423Z,98712.75
2023-04-01T07:59:09.372Z,98719.38
2023-04-01T08:02:04.912Z,98728.00
2023-04-01T08:05:00.466Z,98708.78
2023-04-01T08:07:57.740Z,98715.63
2023-04-01T08:10:49.788Z,98715.31
2023-04-01T08:13:43.151Z,98715.53
2023-04-01T08:16:36.476Z,98684.56
2023-04-01T08:19:33.996Z,98708.44
2023-04-01T08:22:27.697Z,98719.72
2023-04-01T08:25:21.134Z,98720.88
2023-04-01T08:28:13.856Z,98721.28
2023-04-01T08:31:06.274Z,98720.31
2023-04-01T08:33:56.205Z,98722.19
2023-04-01T08:36:47.272Z,98727.31
2023-04-01T08:39:38.678Z,98720.97
2023-04-01T08:42:44.796Z,98726.91
2023-04-01T08:45:55.339Z,98726.66
2023-04-01T08:48:59.604Z,98706.88
2023-04-01T08:52:09.992Z,98716.81
2023-04-01T08:55:23.734Z,98720.28
2023-04-01T08:58:49.109Z,98730.03
2023-04-01T09:01:58.792Z,98731.84
2023-04-01T09:05:18.953Z,98718.22
2023-04-01T09:08:26.840Z,98712.88
2023-04-01T09:11:22.419Z,98741.50
2023-04-01T09:14:31.068Z,98738.09
2023-04-01T09:17:40.412Z,98747.31
2023-04-01T09:20:46.998Z,98742.00
2023-04-01T09:24:05.646Z,98717.84
2023-04-01T09:27:06.491Z,98751.59
2023-04-01T09:30:21.941Z,98749.47
2023-04-01T09:33:42.900Z,98741.63
2023-04-01T09:36:45.939Z,98740.94
2023-04-01T09:39:39.123Z,98729.72
2023-04-01T09:42:46.810Z,98743.31
2023-04-01T09:45:44.970Z,98737.97
2023-04-01T09:48:56.065Z,98745.31
2023-04-01T09:51:52.788Z,98750.16
2023-04-01T09:54:57.609Z,98764.47
2023-04-01T09:58:09.969Z,98752.09
2023-04-01T10:01:25.938Z,98752.34
2023-04-01T10:04:31.110Z,98686.13
2023-04-01T10:07:39.238Z,98755.56
2023-04-01T10:10:57.751Z,98759.06
2023-04-01T10:13:59.019Z,98774.78
2023-04-01T10:17:17.862Z,98773.38
2023-04-01T10:20:16.611Z,98775.09
2023-04-01T10:23:20.503Z,98767.88
2023-04-01T10:26:31.279Z,98774.38
2023-04-01T10:29:51.995Z,98772.19
2023-04-01T10:33:05.009Z,98765.06
2023-04-01T10:36:08.852Z,98770.44
2023-04-01T10:39:30.963Z,98789.22
2023-04-01T10:42:58.553Z,98784.34
2023-04-01T10:46:10.509Z,98767.69
2023-04-01T10:49:41.560Z,98783.19
2023-04-01T10:52:48.945Z,98784.53
2023-04-01T10:56:09.589Z,98786.63
2023-04-01T10:59:27.798Z,98783.59
2023-04-01T11:02:47.609Z,98797.50
2023-04-01T11:09:43.725Z,98780.44
2023-04-01T11:13:13.570Z,98792.91
2023-04-01T11:16:44.349Z,98795.56
2023-04-01T11:20:21.584Z,98793.56
2023-04-01T11:23:24.111Z,98807.13
2023-04-01T11:26:19.740Z,98804.47
2023-04-01T11:29:27.122Z,98780.94
2023-04-01T11:32:27.026Z,98810.41
2023-04-01T11:35:44.316Z,98798.66
2023-04-01T11:38:52.970Z,98799.84
2023-04-01T11:41:46.829Z,98815.72
2023-04-01T11:44:36.294Z,98808.72
2023-04-01T11:47:35.793Z,98761.91
2023-04-01T11:50:32.316Z,98817.53
2023-04-01T11:53:28.865Z,98820.44
2023-04-01T11:56:29.115Z,98822.41
2023-04-01T11:59:45.382Z,98824.97
2023-04-01T12:02:40.731Z,98817.59
2023-04-01T12:05:40.248Z,98831.06
2023-04-01T12:08:36.218Z,98838.31
2023-04-01T12:11:32.376Z,98834.44
2023-04-01T12:14:24.548Z,98839.09
2023-04-01T12:17:22.478Z,98833.66
2023-04-01T12:20:30.651Z,98832.97
2023-04-01T12:23:48.439Z,98838.81
2023-04-01T12:27:07.356Z,98855.53
2023-04-01T12:30:04.874Z,98857.41
2023-04-01T12:33:03.891Z,98845.19
2023-04-01T12:36:00.382Z,98834.81
2023-04-01T12:39:09.628Z,98852.31
2023-04-01T12:42:03.424Z,98852.06
2023-04-01T12:45:14.110Z,98836.81
2023-04-01T12:48:25.467Z,98860.47
2023-04-01T12:51:45.306Z,98863.06
2023-04-01T12:55:09.012Z,98864.22
2023-04-01T12:58:24.073Z,98848.94
2023-04-01T13:01:28.302Z,98872.47
2023-04-01T13:04:37.603Z,98870.41
2023-04-01T13:07:44.539Z,98857.78
2023-04-01T13:10:44.005Z,98884.59
2023-04-01T13:14:21.666Z,98881.09
2023-04-01T13:17:19.047Z,98884.38
2023-04-01T13:20:14.981Z,98880.53
2023-04-01T13:23:12.104Z,98891.72
2023-04-01T13:26:14.180Z,98888.44
2023-04-01T13:29:08.516Z,98869.91
2023-04-01T13:32:08.191Z,98883.44
2023-04-01T13:35:11.115Z,98885.75
2023-04-01T13:38:10.484Z,98885.41
2023-04-01T13:41:05.045Z,98888.44
2023-04-01T13:43:59.445Z,98880.50
2023-04-01T13:47:36.340Z,98894.03
2023-04-01T13:50:48.662Z,98887.50
2023-04-01T13:54:13.895Z,98892.78
2023-04-01T13:57:16.453Z,98895.56
2023-04-01T14:00:27.973Z,98900.13
2023-04-01T14:03:44.637Z,98888.19
2023-04-01T14:06:39.309Z,98896.59
2023-04-01T14:09:43.508Z,98899.88
2023-04-01T14:12:41.011Z,98908.09
2023-04-01T14:15:43.781Z,98892.16
2023-04-01T14:18:39.478Z,98900.19
2023-04-01T14:21:37.163Z,98896.78
2023-04-01T14:24:42.941Z,98909.50
2023-04-01T14:27:44.356Z,98902.16
2023-04-01T14:30:41.010Z,98891.66
2023-04-01T14:33:37.993Z,98902.88
2023-04-01T14:36:37.754Z,98904.59
2023-04-01T14:39:36.151Z,98889.34
2023-04-01T14:42:43.561Z,98907.28
2023-04-01T14:45:59.121Z,98906.72
2023-04-01T14:48:56.178Z,98910.78
2023-04-01T14:51:30.515Z,98911.63
2023-04-01T14:54:02.910Z,98913.97
2023-04-01T14:56:39.425Z,98904.75
2023-04-01T14:59:12.873Z,98913.50
2023-04-01T15:01:49.248Z,98863.72
2023-04-01T15:04:40.101Z,98865.09
2023-04-01T15:07:28.119Z,98901.81
2023-04-01T15:10:26.232Z,98911.72
2023-04-01T15:13:16.481Z,98890.84
2023-04-01T15:16:14.175Z,98914.97
2023-04-01T15:19:02.246Z,98911.81
2023-04-01T15:21:42.242Z,98917.78
2023-04-01T15:24:17.943Z,98894.94
2023-04-01T15:27:13.950Z,98902.50
2023-04-01T15:30:15.708Z,98925.09
2023-04-01T15:33:22.390Z,98913.91
2023-04-01T15:36:21.550Z,98787.75
2023-04-01T15:39:17.776Z,98873.47
2023-04-01T15:42:17.908Z,98927.97
2023-04-01T15:45:16.747Z,98920.03
2023-04-01T15:48:21.676Z,98929.00
2023-04-01T15:51:18.538Z,98931.84
2023-04-01T15:54:26.208Z,98938.03
2023-04-01T15:57:26.202Z,98937.56
2023-04-01T16:00:24.559Z,98940.88
2023-04-01T16:03:29.109Z,98944.25
2023-04-01T16:06:37.515Z,98942.41
2023-04-01T16:09:51.350Z,98949.28
2023-04-01T16:12:52.979Z,98952.53
2023-04-01T16:15:48.541Z,98948.72
2023-04-01T16:18:50.687Z,98945.44
2023-04-01T16:21:43.088Z,98943.22
2023-04-01T16:24:36.856Z,98937.50
2023-04-01T16:27:30.695Z,98947.53
2023-04-01T16:30:29.699Z,98948.94
2023-04-01T16:33:24.089Z,98941.94
2023-04-01T16:36:23.496Z,98935.53
2023-04-01T16:39:22.416Z,98947.16
2023-04-01T16:42:26.053Z,98946.09
2023-04-01T16:45:35.401Z,98954.88
2023-04-01T16:48:27.927Z,98965.03
2023-04-01T16:51:20.130Z,98938.91
2023-04-01T16:54:16.795Z,98965.59
2023-04-01T16:57:17.764Z,98975.19
2023-04-01T17:00:19.012Z,98983.94
2023-04-01T17:03:18.354Z,98984.06
2023-04-01T17:06:15.914Z,99002.94
2023-04-01T17:09:17.974Z,99006.09
2023-04-01T17:12:13.528Z,99014.03
2023-04-01T17:15:07.213Z,99006.69
2023-04-01T17:18:01.629Z,99015.41
2023-04-01T17:20:52.695Z,99019.34
2023-04-01T17:23:46.303Z,99024.94
2023-04-01T17:26:39.567Z,99030.78
2023-04-01T17:29:34.424Z,99007.78
2023-04-01T17:32:32.208Z,99036.97
2023-04-01T17:35:26.503Z,99034.19
2023-04-01T17:38:21.224Z,99045.69
2023-04-01T17:41:15.881Z,99049.53
2023-04-01T17:44:16.876Z,99027.97
2023-04-01T18:00:35.302Z,99056.09
2023-04-01T18:03:21.067Z,99050.59
2023-04-01T18:06:11.414Z,99062.13
2023-04-01T18:09:01.635Z,99069.50
2023-04-01T18:11:58.479Z,99070.03
2023-04-01T18:14:55.948Z,99061.88
2023-04-01T18:17:58.539Z,99065.13
2023-04-01T18:20:55.514Z,99071.16
2023-04-01T18:23:59.161Z,99073.97
2023-04-01T18:26:53.392Z,99076.25
2023-04-01T18:29:44.073Z,99082.56
2023-04-01T18:32:37.765Z,99085.81
2023-04-01T18:35:33.892Z,99086.47
2023-04-01T18:38:27.799Z,99084.41
2023-04-01T18:41:17.570Z,99090.78
2023-04-01T18:44:18.692Z,99090.78
2023-04-01T18:47:18.304Z,99086.47
2023-04-01T18:50:16.342Z,99090.22
2023-04-01T18:53:19.969Z,99093.03
2023-04-01T18:56:09.259Z,99099.94
2023-04-01T18:59:03.419Z,99103.69
2023-04-01T19:02:01.578Z,99101.50
2023-04-01T19:04:54.636Z,98977.81
2023-04-01T19:07:47.320Z,99106.97
2023-04-01T19:10:43.607Z,99083.22
2023-04-01T19:13:39.036Z,99131.44
2023-04-01T19:16:34.857Z,99132.38
2023-04-01T19:19:31.350Z,99048.13
2023-04-01T19:22:33.623Z,99148.34
2023-04-01T19:25:33.521Z,99151.31
2023-04-01T19:28:30.110Z,99149.84
2023-04-01T19:31:32.763Z,99142.47
2023-04-01T19:34:29.115Z,99147.38
2023-04-01T19:37:27.514Z,99149.44
2023-04-01T19:40:24.660Z,99152.75
2023-04-01T19:43:21.057Z,99154.38
2023-04-01T19:46:18.850Z,99154.66
2023-04-01T19:49:29.016Z,99166.53
2023-04-01T19:52:22.674Z,99164.19
2023-04-01T19:55:22.542Z,99171.78
2023-04-01T19:58:15.658Z,99165.31
2023-04-01T20:01:06.079Z,99165.88
2023-04-01T20:04:00.561Z,99166.41
2023-04-01T20:06:54.618Z,99179.38
2023-04-01T20:09:51.373Z,99178.69
2023-04-01T20:12:45.698Z,99179.88
2023-04-01T20:15:37.127Z,99181.66
2023-04-01T20:18:29.733Z,99188.81
2023-04-01T20:21:32.385Z,99186.94
2023-04-01T20:24:24.501Z,99185.69
2023-04-01T20:27:20.740Z,99200.31
2023-04-01T20:30:41.702Z,99201.16
2023-04-01T20:33:45.227Z,99175.03
2023-04-01T20:36:38.612Z,99202.88
2023-04-01T20:39:47.307Z,99194.47
2023-04-01T20:43:05.836Z,99209.03
2023-04-01T20:45:59.567Z,99212.09
2023-04-01T20:49:09.483Z,99224.34
2023-04-01T20:52:05.123Z,99219.47
2023-04-01T20:55:25.609Z,99223.66
2023-04-01T20:58:20.911Z,99222.53
2023-04-01T21:01:17.987Z,99214.56
2023-04-01T21:04:22.408Z,99225.00
2023-04-01T21:07:23.359Z,99229.41
2023-04-01T21:10:22.752Z,99234.75
2023-04-01T21:13:27.041Z,99236.91
2023-04-01T21:16:26.021Z,99227.44
2023-04-01T21:19:31.892Z,99235.03
2023-04-01T21:22:38.905Z,99233.63
2023-04-01T21:25:36.087Z,99244.59
2023-04-01T21:28:38.010Z,99253.59
2023-04-01T21:31:37.992Z,99248.53
2023-04-01T21:34:44.642Z,99256.34
2023-04-01T21:37:51.452Z,99250.91
2023-04-01T21:40:50.087Z,99267.22
2023-04-01T21:43:58.649Z,99241.38
2023-04-01T21:47:11.196Z,99270.28
2023-04-01T21:50:26.334Z,99266.75
2023-04-01T21:54:00.098Z,99268.31
2023-04-01T21:57:16.801Z,99213.03
2023-04-01T22:00:21.131Z,99275.69
2023-04-01T22:03:35.610Z,99266.59
2023-04-01T22:06:27.325Z,99264.16
2023-04-01T22:09:21.106Z,99285.97
2023-04-01T22:12:14.321Z,99280.16
2023-04-01T22:15:08.653Z,99284.69
2023-04-01T22:18:04.196Z,99285.25
2023-04-01T22:21:06.013Z,99288.81
2023-04-01T22:24:00.045Z,99290.44
2023-04-01T22:26:53.731Z,99280.25
2023-04-01T22:29:52.981Z,99293.78
2023-04-01T22:32:44.765Z,99265.31
2023-04-01T22:35:38.977Z,99290.06
2023-04-01T22:38:38.272Z,99294.66
2023-04-01T22:41:36.023Z,99294.31
2023-04-01T22:44:36.517Z,99293.16
2023-04-01T22:47:28.448Z,99290.06
2023-04-01T22:50:21.492Z,99290.13
2023-04-01T22:53:18.807Z,99297.66
2023-04-01T22:56:09.609Z,99297.75
2023-04-01T22:59:03.000Z,99306.66
2023-04-01T23:01:55.830Z,99309.94
2023-04-01T23:04:45.826Z,99315.44
2023-04-01T23:07:47.911Z,99310.75
2023-04-01T23:10:42.734Z,99317.63
2023-04-01T23:13:34.124Z,99319.00
2023-04-01T23:16:26.144Z,99323.56
2023-04-01T23:19:18.418Z,99275.09
2023-04-01T23:22:12.031Z,99324.00
2023-04-01T23:25:15.076Z,99327.13
2023-04-01T23:28:26.814Z,99330.81
2023-04-01T23:31:33.157Z,99315.97
2023-04-01T23:34:28.117Z,99348.22
2023-04-01T23:37:18.681Z,99345.00
2023-04-01T23:40:14.567Z,99346.03
2023-04-01T23:43:03.047Z,99343.63
2023-04-01T23:45:51.640Z,99360.50
2023-04-01T23:48:42.067Z,99368.84
2023-04-01T23:51:39.670Z,99347.41
2023-04-01T23:54:35.791Z,99367.97
2023-04-01T23:57:26.673Z,99378.28
